Osage River (Missouri), Taberville (06918250)

StateMissouriLatestPoor (244 cfs)
RiverOsage RiverRatingObservedEstimated
Updated2021-02-27 14:45 (1 hour ago)Flood - The river is flooding. Obstacles can be treacherous or deadly. The river should be avoided at this stage for casual trips and definitely for the inexperienced. Trips should be attempted only with protective gear and equipment.Flood(none)38403
Discharge244 cfs (median: 668 cfs)High - The river is high and potentially dangerous, especially for the young and / or inexperienced. Normal stream obstacles are sometimes difficult to navigate. Extended distances can be attempted, but canoe travel may not be advisable.High(none)7197
Height9.36 feetGood - Conditions are ideal for a canoe or kayak. Boats typically will drag on fewer than one-quarter of riffles, if at all, and portages are unnecessary or rare. Normal float lengths can be attempted without a problem.Good(none)4305
TrendRising (falling over 24 hours)Low - River is low but can still be floated. Some riffles are okay but most come with significant dragging and might need a portage. Float lengths should be reduced to accommodate low flow, dragging, and portages.Low(none)1188
USGSExternal icon USGS Site (External icon Google Maps)Poor - River is too low to float comfortably. Most or all riffles will drag or must be portaged and some obstacles (such as slick shelf rock) cause undue problems. Avoid the river at this stage for casual paddling trips.Poor(none)50

Trending Data

Plot Image

Trips for Osage River (Missouri), Taberville (06918250)

DateStartEndDistanceConditionDischargeHeightFishingDetails

A total of 0 rows are displayed.

Condition Descriptions

Fishing Conditions

Fish Species

Notes

Classic Trip List

The classic River Trips application is still available for use. It is updated with the new system using a data retrofit. It is no longer maintained. The original River Trips application is no longer updated (as of 1 Dec 2016) but can be checked for errors or for the condition of the data before it was converted to the new system.

Gauge Data Table

ObservationHeightDischargeMaximum
Discharge
Minimum
Discharge
Mean
Discharge
P05P10P20P25P50
(Median)
P75P80P90P95
2021-02-27 14:45 9.36 244 21200 (2011) 137 (2017) 5330 137 443 467 668 11300 11800 21200
2021-02-27 13:45 9.34 239 21200 (2011) 137 (2017) 5330 137 443 467 668 11300 11800 21200
2021-02-27 12:45 9.31 232 21200 (2011) 137 (2017) 5330 137 443 467 668 11300 11800 21200
2021-02-27 11:45 9.32 234 21200 (2011) 137 (2017) 5330 137 443 467 668 11300 11800 21200
2021-02-27 10:45 9.31 232 21200 (2011) 137 (2017) 5330 137 443 467 668 11300 11800 21200
2021-02-27 09:45 9.38 249 21200 (2011) 137 (2017) 5330 137 443 467 668 11300 11800 21200
2021-02-27 08:45 9.40 254 21200 (2011) 137 (2017) 5330 137 443 467 668 11300 11800 21200
2021-02-27 07:45 9.40 254 21200 (2011) 137 (2017) 5330 137 443 467 668 11300 11800 21200
2021-02-27 06:45 9.40 254 21200 (2011) 137 (2017) 5330 137 443 467 668 11300 11800 21200
2021-02-27 05:45 9.39 251 21200 (2011) 137 (2017) 5330 137 443 467 668 11300 11800 21200
2021-02-27 04:45 9.39 251 21200 (2011) 137 (2017) 5330 137 443 467 668 11300 11800 21200
2021-02-27 03:45 9.39 251 21200 (2011) 137 (2017) 5330 137 443 467 668 11300 11800 21200
2021-02-27 02:45 9.38 249 21200 (2011) 137 (2017) 5330 137 443 467 668 11300 11800 21200
2021-02-27 01:45 9.39 251 21200 (2011) 137 (2017) 5330 137 443 467 668 11300 11800 21200
2021-02-27 00:45 9.38 249 21200 (2011) 137 (2017) 5330 137 443 467 668 11300 11800 21200
2021-02-26 23:45 9.39 251 20300 (2011) 147 (2017) 5730 147 408 473 600 14200 15200 20300
2021-02-26 22:45 9.40 254 20300 (2011) 147 (2017) 5730 147 408 473 600 14200 15200 20300
2021-02-26 21:45 9.41 256 20300 (2011) 147 (2017) 5730 147 408 473 600 14200 15200 20300
2021-02-26 20:45 9.42 259 20300 (2011) 147 (2017) 5730 147 408 473 600 14200 15200 20300
2021-02-26 19:45 9.44 264 20300 (2011) 147 (2017) 5730 147 408 473 600 14200 15200 20300
2021-02-26 18:45 9.45 266 20300 (2011) 147 (2017) 5730 147 408 473 600 14200 15200 20300
2021-02-26 17:45 9.45 266 20300 (2011) 147 (2017) 5730 147 408 473 600 14200 15200 20300
2021-02-26 16:45 9.46 269 20300 (2011) 147 (2017) 5730 147 408 473 600 14200 15200 20300
2021-02-26 15:45 9.48 274 20300 (2011) 147 (2017) 5730 147 408 473 600 14200 15200 20300
2021-02-26 14:45 9.49 277 20300 (2011) 147 (2017) 5730 147 408 473 600 14200 15200 20300
2021-02-26 13:45 9.50 280 20300 (2011) 147 (2017) 5730 147 408 473 600 14200 15200 20300
2021-02-26 12:45 9.50 280 20300 (2011) 147 (2017) 5730 147 408 473 600 14200 15200 20300
2021-02-26 11:45 9.52 285 20300 (2011) 147 (2017) 5730 147 408 473 600 14200 15200 20300
2021-02-26 10:45 9.53 288 20300 (2011) 147 (2017) 5730 147 408 473 600 14200 15200 20300
2021-02-26 09:45 9.54 290 20300 (2011) 147 (2017) 5730 147 408 473 600 14200 15200 20300
2021-02-26 08:45 9.55 293 20300 (2011) 147 (2017) 5730 147 408 473 600 14200 15200 20300
2021-02-26 07:45 9.56 296 20300 (2011) 147 (2017) 5730 147 408 473 600 14200 15200 20300
2021-02-26 06:45 9.58 301 20300 (2011) 147 (2017) 5730 147 408 473 600 14200 15200 20300
2021-02-26 05:45 9.58 301 20300 (2011) 147 (2017) 5730 147 408 473 600 14200 15200 20300
2021-02-26 04:45 9.59 304 20300 (2011) 147 (2017) 5730 147 408 473 600 14200 15200 20300
2021-02-26 03:45 9.60 307 20300 (2011) 147 (2017) 5730 147 408 473 600 14200 15200 20300
2021-02-26 02:45 9.61 310 20300 (2011) 147 (2017) 5730 147 408 473 600 14200 15200 20300
2021-02-26 01:45 9.62 313 20300 (2011) 147 (2017) 5730 147 408 473 600 14200 15200 20300
2021-02-26 00:45 9.63 316 20300 (2011) 147 (2017) 5730 147 408 473 600 14200 15200 20300
2021-02-25 23:45 9.64 318 17300 (2011) 195 (2017) 5490 195 316 427 584 14600 16600 17300
2021-02-25 22:45 9.65 321 17300 (2011) 195 (2017) 5490 195 316 427 584 14600 16600 17300
2021-02-25 21:45 9.66 324 17300 (2011) 195 (2017) 5490 195 316 427 584 14600 16600 17300
2021-02-25 20:45 9.68 330 17300 (2011) 195 (2017) 5490 195 316 427 584 14600 16600 17300
2021-02-25 19:45 9.70 336 17300 (2011) 195 (2017) 5490 195 316 427 584 14600 16600 17300
2021-02-25 18:45 9.70 336 17300 (2011) 195 (2017) 5490 195 316 427 584 14600 16600 17300
2021-02-25 17:45 9.72 342 17300 (2011) 195 (2017) 5490 195 316 427 584 14600 16600 17300
2021-02-25 16:45 9.73 345 17300 (2011) 195 (2017) 5490 195 316 427 584 14600 16600 17300
2021-02-25 15:45 9.75 351 17300 (2011) 195 (2017) 5490 195 316 427 584 14600 16600 17300
2021-02-25 14:45 9.76 354 17300 (2011) 195 (2017) 5490 195 316 427 584 14600 16600 17300
2021-02-25 13:45 9.75 351 17300 (2011) 195 (2017) 5490 195 316 427 584 14600 16600 17300
2021-02-25 12:45 9.74 348 17300 (2011) 195 (2017) 5490 195 316 427 584 14600 16600 17300
2021-02-25 11:45 9.74 348 17300 (2011) 195 (2017) 5490 195 316 427 584 14600 16600 17300
2021-02-25 10:45 9.75 351 17300 (2011) 195 (2017) 5490 195 316 427 584 14600 16600 17300
2021-02-25 09:45 9.73 345 17300 (2011) 195 (2017) 5490 195 316 427 584 14600 16600 17300
2021-02-25 08:45 9.73 345 17300 (2011) 195 (2017) 5490 195 316 427 584 14600 16600 17300
2021-02-25 07:45 9.72 342 17300 (2011) 195 (2017) 5490 195 316 427 584 14600 16600 17300
2021-02-25 06:45 9.72 342 17300 (2011) 195 (2017) 5490 195 316 427 584 14600 16600 17300
2021-02-25 05:45 9.71 339 17300 (2011) 195 (2017) 5490 195 316 427 584 14600 16600 17300
2021-02-25 04:45 9.70 336 17300 (2011) 195 (2017) 5490 195 316 427 584 14600 16600 17300
2021-02-25 03:45 9.67 327 17300 (2011) 195 (2017) 5490 195 316 427 584 14600 16600 17300
2021-02-25 02:45 9.65 321 17300 (2011) 195 (2017) 5490 195 316 427 584 14600 16600 17300
2021-02-25 01:45 9.63 316 17300 (2011) 195 (2017) 5490 195 316 427 584 14600 16600 17300
2021-02-25 00:45 9.60 307 17300 (2011) 195 (2017) 5490 195 316 427 584 14600 16600 17300
2021-02-24 23:45 9.58 301 10100 (2019) 205 (2013) 3380 205 287 382 661 8630 8910 10100
2021-02-24 22:45 9.57 299 10100 (2019) 205 (2013) 3380 205 287 382 661 8630 8910 10100
2021-02-24 21:45 9.54 290 10100 (2019) 205 (2013) 3380 205 287 382 661 8630 8910 10100
2021-02-24 20:45 9.50 280 10100 (2019) 205 (2013) 3380 205 287 382 661 8630 8910 10100
2021-02-24 19:45 9.48 274 10100 (2019) 205 (2013) 3380 205 287 382 661 8630 8910 10100
2021-02-24 18:45 9.43 261 10100 (2019) 205 (2013) 3380 205 287 382 661 8630 8910 10100
2021-02-24 17:45 9.41 256 10100 (2019) 205 (2013) 3380 205 287 382 661 8630 8910 10100
2021-02-24 16:45 9.38 249 10100 (2019) 205 (2013) 3380 205 287 382 661 8630 8910 10100
2021-02-24 15:45 9.32 234 10100 (2019) 205 (2013) 3380 205 287 382 661 8630 8910 10100
2021-02-24 14:45 9.28 225 10100 (2019) 205 (2013) 3380 205 287 382 661 8630 8910 10100
2021-02-24 13:45 9.23 214 10100 (2019) 205 (2013) 3380 205 287 382 661 8630 8910 10100
2021-02-24 12:45 9.19 205 10100 (2019) 205 (2013) 3380 205 287 382 661 8630 8910 10100
2021-02-24 11:45 9.14 195 10100 (2019) 205 (2013) 3380 205 287 382 661 8630 8910 10100
2021-02-24 10:45 9.12 192 10100 (2019) 205 (2013) 3380 205 287 382 661 8630 8910 10100
2021-02-24 09:45 9.08 184 10100 (2019) 205 (2013) 3380 205 287 382 661 8630 8910 10100
2021-02-24 08:45 9.06 180 10100 (2019) 205 (2013) 3380 205 287 382 661 8630 8910 10100
2021-02-24 07:45 9.03 175 10100 (2019) 205 (2013) 3380 205 287 382 661 8630 8910 10100
2021-02-24 06:45 9.00 169 10100 (2019) 205 (2013) 3380 205 287 382 661 8630 8910 10100
2021-02-24 05:45 8.96 162 10100 (2019) 205 (2013) 3380 205 287 382 661 8630 8910 10100
2021-02-24 04:45 8.93 157 10100 (2019) 205 (2013) 3380 205 287 382 661 8630 8910 10100
2021-02-24 03:45 8.90 152 10100 (2019) 205 (2013) 3380 205 287 382 661 8630 8910 10100
2021-02-24 02:45 8.87 147 10100 (2019) 205 (2013) 3380 205 287 382 661 8630 8910 10100
2021-02-24 01:45 8.84 142 10100 (2019) 205 (2013) 3380 205 287 382 661 8630 8910 10100
2021-02-24 00:45 8.81 138 10100 (2019) 205 (2013) 3380 205 287 382 661 8630 8910 10100
2021-02-23 23:45 8.76 130 8570 (2018) 150 (2013) 2790 150 409 424 742 6600 8510 8570
2021-02-23 22:45 8.73 126 8570 (2018) 150 (2013) 2790 150 409 424 742 6600 8510 8570
2021-02-23 21:45 8.71 123 8570 (2018) 150 (2013) 2790 150 409 424 742 6600 8510 8570
2021-02-23 20:45 8.70 122 8570 (2018) 150 (2013) 2790 150 409 424 742 6600 8510 8570
2021-02-23 19:45 8.70 122 8570 (2018) 150 (2013) 2790 150 409 424 742 6600 8510 8570
2021-02-23 18:45 8.68 119 8570 (2018) 150 (2013) 2790 150 409 424 742 6600 8510 8570
2021-02-23 17:45 8.64 114 8570 (2018) 150 (2013) 2790 150 409 424 742 6600 8510 8570
2021-02-23 16:45 8.59 107 8570 (2018) 150 (2013) 2790 150 409 424 742 6600 8510 8570
2021-02-23 15:45 8.57 104 8570 (2018) 150 (2013) 2790 150 409 424 742 6600 8510 8570
2021-02-23 14:45 8.58 106 8570 (2018) 150 (2013) 2790 150 409 424 742 6600 8510 8570
2021-02-23 13:45 8.60 108 8570 (2018) 150 (2013) 2790 150 409 424 742 6600 8510 8570
2021-02-23 12:45 8.59 107 8570 (2018) 150 (2013) 2790 150 409 424 742 6600 8510 8570
2021-02-23 11:45 8.59 107 8570 (2018) 150 (2013) 2790 150 409 424 742 6600 8510 8570
2021-02-23 10:45 8.63 112 8570 (2018) 150 (2013) 2790 150 409 424 742 6600 8510 8570
2021-02-23 09:45 8.60 108 8570 (2018) 150 (2013) 2790 150 409 424 742 6600 8510 8570
2021-02-23 08:45 8.59 107 8570 (2018) 150 (2013) 2790 150 409 424 742 6600 8510 8570
2021-02-23 07:45 8.58 106 8570 (2018) 150 (2013) 2790 150 409 424 742 6600 8510 8570
2021-02-23 06:45 8.52 98 8570 (2018) 150 (2013) 2790 150 409 424 742 6600 8510 8570
2021-02-23 05:45 8.46 91 8570 (2018) 150 (2013) 2790 150 409 424 742 6600 8510 8570
2021-02-23 04:45 8.44 90 8570 (2018) 150 (2013) 2790 150 409 424 742 6600 8510 8570
2021-02-23 03:45 8.43 89 8570 (2018) 150 (2013) 2790 150 409 424 742 6600 8510 8570
2021-02-23 02:45 8.36 82 8570 (2018) 150 (2013) 2790 150 409 424 742 6600 8510 8570
2021-02-23 01:45 8.34 81 8570 (2018) 150 (2013) 2790 150 409 424 742 6600 8510 8570
2021-02-23 00:45 8.31 78 8570 (2018) 150 (2013) 2790 150 409 424 742 6600 8510 8570
2021-02-22 23:45 8.29 76 12200 (2018) 123 (2013) 3070 123 324 416 770 6070 9140 12200
2021-02-22 22:45 8.27 75 12200 (2018) 123 (2013) 3070 123 324 416 770 6070 9140 12200
2021-02-22 21:45 8.24 74 12200 (2018) 123 (2013) 3070 123 324 416 770 6070 9140 12200
2021-02-22 20:45 8.22 73 12200 (2018) 123 (2013) 3070 123 324 416 770 6070 9140 12200
2021-02-22 19:45 8.19 72 12200 (2018) 123 (2013) 3070 123 324 416 770 6070 9140 12200
2021-02-22 18:45 8.18 71 12200 (2018) 123 (2013) 3070 123 324 416 770 6070 9140 12200
2021-02-22 17:45 8.18 71 12200 (2018) 123 (2013) 3070 123 324 416 770 6070 9140 12200
2021-02-22 16:45 8.20 72 12200 (2018) 123 (2013) 3070 123 324 416 770 6070 9140 12200
2021-02-22 15:45 8.22 73 12200 (2018) 123 (2013) 3070 123 324 416 770 6070 9140 12200
2021-02-22 14:45 8.22 73 12200 (2018) 123 (2013) 3070 123 324 416 770 6070 9140 12200
2021-02-22 13:45 8.24 74 12200 (2018) 123 (2013) 3070 123 324 416 770 6070 9140 12200
2021-02-22 12:45 8.25 74 12200 (2018) 123 (2013) 3070 123 324 416 770 6070 9140 12200
2021-02-22 11:45 8.26 74 12200 (2018) 123 (2013) 3070 123 324 416 770 6070 9140 12200
2021-02-22 10:45 8.26 74 12200 (2018) 123 (2013) 3070 123 324 416 770 6070 9140 12200
2021-02-22 09:45 8.26 74 12200 (2018) 123 (2013) 3070 123 324 416 770 6070 9140 12200
2021-02-22 08:45 8.27 75 12200 (2018) 123 (2013) 3070 123 324 416 770 6070 9140 12200
2021-02-22 07:45 8.29 76 12200 (2018) 123 (2013) 3070 123 324 416 770 6070 9140 12200
2021-02-22 06:45 8.33 80 12200 (2018) 123 (2013) 3070 123 324 416 770 6070 9140 12200
2021-02-22 05:45 8.35 81 12200 (2018) 123 (2013) 3070 123 324 416 770 6070 9140 12200
2021-02-22 04:45 8.38 84 12200 (2018) 123 (2013) 3070 123 324 416 770 6070 9140 12200
2021-02-22 03:45 8.37 83 12200 (2018) 123 (2013) 3070 123 324 416 770 6070 9140 12200
2021-02-22 02:45 8.37 83 12200 (2018) 123 (2013) 3070 123 324 416 770 6070 9140 12200
2021-02-22 01:45 8.36 82 12200 (2018) 123 (2013) 3070 123 324 416 770 6070 9140 12200
2021-02-22 00:45 8.34 81 12200 (2018) 123 (2013) 3070 123 324 416 770 6070 9140 12200
2021-02-21 23:45 8.33 80 7560 (2018) 181 (2013) 2160 181 390 457 808 4270 6100 7560
2021-02-21 22:45 8.34 81 7560 (2018) 181 (2013) 2160 181 390 457 808 4270 6100 7560
2021-02-21 21:45 8.34 81 7560 (2018) 181 (2013) 2160 181 390 457 808 4270 6100 7560
2021-02-21 20:45 8.32 79 7560 (2018) 181 (2013) 2160 181 390 457 808 4270 6100 7560
2021-02-21 19:45 8.33 80 7560 (2018) 181 (2013) 2160 181 390 457 808 4270 6100 7560
2021-02-21 18:45 8.33 80 7560 (2018) 181 (2013) 2160 181 390 457 808 4270 6100 7560
2021-02-21 17:45 8.34 81 7560 (2018) 181 (2013) 2160 181 390 457 808 4270 6100 7560
2021-02-21 16:45 8.35 81 7560 (2018) 181 (2013) 2160 181 390 457 808 4270 6100 7560
2021-02-21 15:45 8.37 83 7560 (2018) 181 (2013) 2160 181 390 457 808 4270 6100 7560
2021-02-21 14:45 8.38 84 7560 (2018) 181 (2013) 2160 181 390 457 808 4270 6100 7560
2021-02-21 13:45 8.37 83 7560 (2018) 181 (2013) 2160 181 390 457 808 4270 6100 7560
2021-02-21 12:45 8.35 81 7560 (2018) 181 (2013) 2160 181 390 457 808 4270 6100 7560
2021-02-21 11:45 8.38 84 7560 (2018) 181 (2013) 2160 181 390 457 808 4270 6100 7560
2021-02-21 10:45 8.13 69 7560 (2018) 181 (2013) 2160 181 390 457 808 4270 6100 7560
2021-02-21 09:45 8.16 70 7560 (2018) 181 (2013) 2160 181 390 457 808 4270 6100 7560
2021-02-21 08:45 8.18 71 7560 (2018) 181 (2013) 2160 181 390 457 808 4270 6100 7560
2021-02-21 07:45 8.15 70 7560 (2018) 181 (2013) 2160 181 390 457 808 4270 6100 7560
2021-02-21 06:45 8.10 68 7560 (2018) 181 (2013) 2160 181 390 457 808 4270 6100 7560
2021-02-21 05:45 8.09 67 7560 (2018) 181 (2013) 2160 181 390 457 808 4270 6100 7560
2021-02-21 04:45 8.08 67 7560 (2018) 181 (2013) 2160 181 390 457 808 4270 6100 7560
2021-02-21 03:45 8.12 69 7560 (2018) 181 (2013) 2160 181 390 457 808 4270 6100 7560
2021-02-21 02:45 8.20 72 7560 (2018) 181 (2013) 2160 181 390 457 808 4270 6100 7560
2021-02-21 01:45 8.23 73 7560 (2018) 181 (2013) 2160 181 390 457 808 4270 6100 7560
2021-02-21 00:45 8.24 74 7560 (2018) 181 (2013) 2160 181 390 457 808 4270 6100 7560
2021-02-20 23:45 8.24 74 8260 (2011) 153 (2013) 1620 153 349 379 725 1720 2460 8260
2021-02-20 22:45 8.23 73 8260 (2011) 153 (2013) 1620 153 349 379 725 1720 2460 8260
2021-02-20 21:45 8.24 74 8260 (2011) 153 (2013) 1620 153 349 379 725 1720 2460 8260
2021-02-20 20:45 8.25 74 8260 (2011) 153 (2013) 1620 153 349 379 725 1720 2460 8260
2021-02-20 19:45 8.26 74 8260 (2011) 153 (2013) 1620 153 349 379 725 1720 2460 8260
2021-02-20 18:45 8.29 76 8260 (2011) 153 (2013) 1620 153 349 379 725 1720 2460 8260
2021-02-20 17:45 8.10 68 8260 (2011) 153 (2013) 1620 153 349 379 725 1720 2460 8260
2021-02-20 16:45 8.15 70 8260 (2011) 153 (2013) 1620 153 349 379 725 1720 2460 8260
2021-02-20 15:45 8.25 74 8260 (2011) 153 (2013) 1620 153 349 379 725 1720 2460 8260
2021-02-20 14:45 8.31 78 8260 (2011) 153 (2013) 1620 153 349 379 725 1720 2460 8260
2021-02-20 13:45 8.30 77 8260 (2011) 153 (2013) 1620 153 349 379 725 1720 2460 8260
2021-02-20 12:45 8.31 78 8260 (2011) 153 (2013) 1620 153 349 379 725 1720 2460 8260
2021-02-20 11:45 8.31 78 8260 (2011) 153 (2013) 1620 153 349 379 725 1720 2460 8260
2021-02-20 10:45 8.29 76 8260 (2011) 153 (2013) 1620 153 349 379 725 1720 2460 8260
2021-02-20 09:45 8.28 75 8260 (2011) 153 (2013) 1620 153 349 379 725 1720 2460 8260
2021-02-20 08:45 8.13 69 8260 (2011) 153 (2013) 1620 153 349 379 725 1720 2460 8260
2021-02-20 07:45 8.11 68 8260 (2011) 153 (2013) 1620 153 349 379 725 1720 2460 8260
2021-02-20 06:45 8.10 68 8260 (2011) 153 (2013) 1620 153 349 379 725 1720 2460 8260
2021-02-20 05:45 8.11 68 8260 (2011) 153 (2013) 1620 153 349 379 725 1720 2460 8260
2021-02-20 04:45 8.15 70 8260 (2011) 153 (2013) 1620 153 349 379 725 1720 2460 8260
2021-02-20 03:45 8.20 72 8260 (2011) 153 (2013) 1620 153 349 379 725 1720 2460 8260
2021-02-20 02:45 8.17 71 8260 (2011) 153 (2013) 1620 153 349 379 725 1720 2460 8260
2021-02-20 01:45 8.22 73 8260 (2011) 153 (2013) 1620 153 349 379 725 1720 2460 8260
2021-02-20 00:45 8.36 82 8260 (2011) 153 (2013) 1620 153 349 379 725 1720 2460 8260

A total of 183 rows are displayed for years 2011 through 2019.